Aurora, South Dakota
Current Conditions -  °F | °C
As of 1:55 AM on Wednesday 26 Nov 2014 (Local Time) from KMDS Reporting Station
Light Snow Light Snow  
Wind Chill: 23°   Ceiling: 400
Heat Index: 28°   Visibility: 4mi
Dew Point: 28°   Wind: 5mph
Humidity: 100%   Direction: 110°ESE
Pressure: 29.82"   Gusts: NA
Location:  44.28°N, 96.69°W
Report Text: KMDS 260755Z AUTO 11004KT 4SM -SN OVC004 M02/M02 A2982 RMK AO2 P0002
Loading
Personal Weather Stations






























Interactive Weather Map New forecast layout! Learn more

10-Day Weather Forecast

Advertisements
Track Severe Weather on mobile